createdAt,value
2017-10-11T03:35:37.784Z,89.3
2017-10-11T03:36:39.184Z,89.4
2017-10-11T03:38:01.230Z,88.8
2017-10-11T03:39:02.628Z,89.1
2017-10-11T03:40:24.197Z,88.8
2017-10-11T03:41:25.596Z,89.1
2017-10-11T03:42:48.154Z,88.9
2017-10-11T03:43:49.605Z,88.6
2017-10-11T03:45:11.122Z,88.2
2017-10-11T03:46:12.523Z,88.9
2017-10-11T03:47:34.057Z,88.1
2017-10-11T03:48:35.455Z,87.7
2017-10-11T03:49:57.025Z,87.8
2017-10-11T03:50:58.942Z,87.7
2017-10-11T03:52:20.983Z,87.5
2017-10-11T03:53:22.380Z,87.8
2017-10-11T03:54:48.953Z,87.3
2017-10-11T03:55:50.350Z,87.5
2017-10-11T03:57:11.923Z,86.6
2017-10-11T03:58:13.323Z,86.7
2017-10-11T03:59:35.372Z,87.0
2017-10-11T04:00:36.767Z,86.9
2017-10-11T04:01:58.336Z,86.0
2017-10-11T04:02:59.738Z,86.3
2017-10-11T04:04:21.264Z,86.6
2017-10-11T04:05:22.666Z,86.4
2017-10-11T04:06:44.236Z,86.3
2017-10-11T04:07:45.636Z,86.2
2017-10-11T04:09:07.174Z,85.9
2017-10-11T04:10:08.570Z,85.9
2017-10-11T04:11:30.141Z,85.9
2017-10-11T04:12:31.541Z,86.0
2017-10-11T04:13:53.068Z,86.4
2017-10-11T04:14:54.470Z,86.0
2017-10-11T04:16:16.553Z,85.7
2017-10-11T04:17:17.953Z,86.0
2017-10-11T04:18:39.486Z,85.7
2017-10-11T04:19:40.880Z,85.8
2017-10-11T04:21:02.973Z,86.2
2017-10-11T04:22:04.363Z,85.7
2017-10-11T04:23:25.896Z,85.8
2017-10-11T04:24:27.299Z,85.8
2017-10-11T04:25:48.816Z,85.6
2017-10-11T04:26:50.219Z,86.0
2017-10-11T04:28:11.803Z,85.7
2017-10-11T04:29:13.203Z,85.9
2017-10-11T04:30:34.721Z,86.0
2017-10-11T04:31:36.124Z,85.8
2017-10-11T04:32:57.704Z,85.6
2017-10-11T04:33:59.100Z,85.9
2017-10-11T04:35:22.204Z,85.9
2017-10-11T04:36:23.601Z,85.7
2017-10-11T04:37:45.107Z,85.8
2017-10-11T04:38:46.499Z,85.7
2017-10-11T04:40:08.087Z,86.0
2017-10-11T04:41:09.489Z,85.5
2017-10-11T04:42:31.080Z,85.8
2017-10-11T04:43:32.481Z,86.1
2017-10-11T04:44:53.989Z,85.7
2017-10-11T04:45:55.390Z,85.7
2017-10-11T04:47:16.961Z,85.8
2017-10-11T04:48:18.359Z,85.7
2017-10-11T04:49:39.856Z,85.7
2017-10-11T04:50:41.254Z,86.0
2017-10-11T04:52:02.870Z,85.7
2017-10-11T04:53:04.267Z,86.2
2017-10-11T04:54:25.791Z,85.8
2017-10-11T04:55:27.191Z,85.6
2017-10-11T04:56:48.708Z,85.4
2017-10-11T04:57:50.341Z,85.4
2017-10-11T04:59:12.414Z,85.7
2017-10-11T05:00:13.812Z,85.7
2017-10-11T05:01:35.326Z,86.0
2017-10-11T05:02:36.731Z,85.6
2017-10-11T05:04:01.283Z,85.5
2017-10-11T15:07:00.134Z,71.3
2017-10-11T15:08:01.562Z,71.3
2017-10-11T15:09:23.615Z,71.5
2017-10-11T15:10:25.088Z,71.6
2017-10-11T15:11:46.674Z,71.5
2017-10-11T15:12:48.083Z,72.0
2017-10-11T15:14:10.122Z,71.2
2017-10-11T15:15:12.414Z,71.8
2017-10-11T15:16:34.012Z,71.6
2017-10-11T15:17:35.426Z,71.0
2017-10-11T15:18:56.951Z,71.2
2017-10-11T15:19:58.358Z,71.4
2017-10-11T15:21:19.928Z,71.4
2017-10-11T15:22:21.451Z,71.3
2017-10-11T15:23:46.948Z,71.0
2017-10-11T15:24:48.375Z,71.1
2017-10-11T15:26:10.425Z,71.7
2017-10-11T15:27:12.169Z,71.1
2017-10-11T15:28:33.772Z,71.2
2017-10-11T16:00:01.454Z,73.4
2017-10-11T16:01:02.869Z,73.9
2017-10-11T16:02:24.491Z,73.3
2017-10-11T16:03:25.887Z,73.5
2017-10-11T16:04:47.928Z,73.4
2017-10-11T16:05:49.337Z,73.5
2017-10-11T16:07:10.957Z,73.4
2017-10-11T16:08:12.364Z,73.2
2017-10-11T16:09:34.448Z,73.0
2017-10-11T16:10:35.900Z,73.0
2017-10-11T16:11:57.927Z,73.4
2017-10-11T16:12:59.330Z,72.9
2017-10-11T16:14:21.390Z,73.0
2017-10-11T16:15:22.763Z,72.5
2017-10-11T16:16:44.853Z,72.6
2017-10-11T16:17:46.258Z,72.9
2017-10-11T16:19:08.297Z,72.8
2017-10-11T16:20:09.701Z,72.9
2017-10-11T16:21:33.725Z,73.1
2017-10-11T16:22:35.132Z,73.1
2017-10-11T16:23:57.167Z,73.1
2017-10-11T16:24:58.574Z,72.9
2017-10-11T16:26:20.649Z,72.8
2017-10-11T16:27:22.055Z,72.2
2017-10-11T16:28:45.117Z,72.0
2017-10-11T16:29:46.520Z,72.0
2017-10-11T16:31:08.531Z,72.5
2017-10-11T16:32:09.934Z,72.5
2017-10-11T16:33:31.941Z,73.1
2017-10-11T16:34:33.349Z,73.1
2017-10-11T16:35:56.440Z,72.4
2017-10-11T16:36:57.844Z,72.8
2017-10-11T16:38:19.906Z,72.4
2017-10-11T16:39:21.312Z,72.4
2017-10-11T16:40:44.404Z,72.2
2017-10-11T16:41:45.808Z,72.2
2017-10-11T16:43:07.879Z,72.5
2017-10-11T16:44:09.284Z,73.0
2017-10-11T16:45:30.889Z,72.5
2017-10-11T16:46:32.295Z,72.4
2017-10-11T16:47:54.669Z,73.0
2017-10-11T16:48:56.411Z,72.9
2017-10-11T16:50:18.856Z,72.8
2017-10-11T16:51:20.265Z,72.9
2017-10-11T16:52:42.508Z,72.1
2017-10-11T16:53:44.030Z,72.2
2017-10-11T16:55:10.041Z,72.6
2017-10-11T16:56:11.890Z,73.2
2017-10-11T16:57:33.490Z,73.7
2017-10-11T16:58:35.016Z,73.2
2017-10-11T16:59:56.583Z,73.2
2017-10-11T17:00:57.997Z,73.4
2017-10-11T17:02:20.063Z,72.9
2017-10-11T17:03:21.785Z,72.9
2017-10-11T17:04:44.840Z,72.9
2017-10-11T17:05:46.711Z,72.7
2017-10-11T17:07:08.893Z,72.9
2017-10-11T17:08:11.284Z,72.9
2017-10-11T17:09:32.825Z,72.8
2017-10-11T18:21:30.225Z,77.7
2017-10-11T18:22:32.178Z,78.2
2017-10-11T18:27:39.098Z,78.2
2017-10-11T18:28:40.917Z,78.3
2017-10-11T18:30:03.280Z,78.1
2017-10-11T18:31:05.222Z,78.4
2017-10-11T18:32:27.229Z,77.8
2017-10-11T18:33:29.575Z,77.8
2017-10-11T18:34:53.456Z,77.7
2017-10-11T18:35:54.876Z,77.1
2017-10-11T18:37:17.311Z,77.2
2017-10-11T18:38:19.409Z,78.3
2017-10-11T18:39:43.214Z,78.0
2017-10-11T18:41:26.665Z,77.3
2017-10-11T18:52:11.609Z,77.2
